createdAt,value
2023-01-28T00:03:02.201Z,213301.00
2023-01-28T00:09:04.343Z,213315.00
2023-01-28T00:15:07.139Z,213267.00
2023-01-28T00:21:15.224Z,213295.00
2023-01-28T00:27:17.873Z,213281.00
2023-01-28T00:33:20.032Z,213287.00
2023-01-28T00:39:22.396Z,213267.00
2023-01-28T00:45:24.527Z,213301.00
2023-01-28T00:51:27.183Z,213287.00
2023-01-28T00:57:29.531Z,213261.00
2023-01-28T01:03:31.564Z,213233.00
2023-01-28T01:09:34.000Z,213267.00
2023-01-28T01:15:36.250Z,213261.00
2023-01-28T01:21:38.630Z,213273.00
2023-01-28T01:27:41.271Z,213287.00
2023-01-28T01:33:45.177Z,213295.00
2023-01-28T01:39:47.807Z,213313.00
2023-01-28T01:45:56.415Z,213301.00
2023-01-28T01:52:09.337Z,213341.00
2023-01-28T01:58:16.429Z,213301.00
2023-01-28T02:04:30.867Z,213327.00
2023-01-28T02:10:32.994Z,213347.00
2023-01-28T02:16:35.465Z,213341.00
2023-01-28T02:22:55.577Z,213366.00
2023-01-28T02:29:31.947Z,213380.00
2023-01-28T02:35:43.022Z,213414.00
2023-01-28T02:41:57.641Z,213434.00
2023-01-28T02:47:59.894Z,213468.00
2023-01-28T02:54:31.059Z,213512.00
2023-01-28T03:00:55.821Z,213532.00
2023-01-28T03:07:04.613Z,213546.00
2023-01-28T03:13:25.309Z,213526.00
2023-01-28T03:19:47.784Z,213560.00
2023-01-28T03:26:11.005Z,213546.00
2023-01-28T03:32:32.204Z,213574.00
2023-01-28T03:38:42.561Z,213574.00
2023-01-28T03:44:54.100Z,213600.00
2023-01-28T03:51:00.662Z,213627.00
2023-01-28T03:57:06.479Z,213641.00
2023-01-28T04:03:16.451Z,213653.00
2023-01-28T04:09:38.898Z,213667.00
2023-01-28T04:16:03.843Z,213641.00
2023-01-28T04:22:12.986Z,213580.00
2023-01-28T04:28:17.411Z,213620.00
2023-01-28T04:34:20.866Z,213627.00
2023-01-28T04:40:37.961Z,213600.00
2023-01-28T04:46:45.984Z,213600.00
2023-01-28T04:52:52.045Z,213641.00
2023-01-28T04:59:12.995Z,213627.00
2023-01-28T05:05:15.660Z,213641.00
2023-01-28T05:11:39.322Z,213627.00
2023-01-28T05:17:43.623Z,213633.00
2023-01-28T05:23:47.819Z,213608.00
2023-01-28T05:29:49.826Z,213614.00
2023-01-28T05:35:52.143Z,213580.00
2023-01-28T05:41:56.101Z,213546.00
2023-01-28T05:47:58.902Z,213520.00
2023-01-28T05:54:18.355Z,213468.00
2023-01-28T06:00:21.097Z,213498.00
2023-01-28T06:06:23.466Z,213512.00
2023-01-28T06:12:25.707Z,213512.00
2023-01-28T06:18:48.269Z,213546.00
2023-01-28T06:24:50.450Z,213512.00
2023-01-28T06:30:53.645Z,213486.00
2023-01-28T06:36:55.959Z,213546.00
2023-01-28T06:42:58.266Z,213546.00
2023-01-28T06:49:00.387Z,213574.00
2023-01-28T06:55:02.676Z,213608.00
2023-01-28T07:01:05.368Z,213641.00
2023-01-28T07:07:07.851Z,213681.00
2023-01-28T07:13:10.705Z,213667.00
2023-01-28T07:19:13.012Z,213659.00
2023-01-28T07:25:15.697Z,213727.00
2023-01-28T07:31:17.969Z,213721.00
2023-01-28T07:37:20.239Z,213765.00
2023-01-28T07:43:22.525Z,213799.00
2023-01-28T07:49:28.535Z,213839.00
2023-01-28T07:55:31.539Z,213833.00
2023-01-28T08:01:33.965Z,213881.00
2023-01-28T08:07:36.280Z,214013.00
2023-01-28T08:13:38.541Z,213934.00
2023-01-28T08:19:40.864Z,213954.00
2023-01-28T08:25:43.358Z,213962.00
2023-01-28T08:31:45.528Z,213999.00
2023-01-28T08:37:48.298Z,214046.00
2023-01-28T08:43:50.381Z,214052.00
2023-01-28T08:49:52.647Z,214173.00
2023-01-28T08:55:55.855Z,214227.00
2023-01-28T09:01:58.586Z,214187.00
2023-01-28T09:08:06.738Z,214142.00
2023-01-28T09:14:08.967Z,214126.00
2023-01-28T09:20:13.966Z,214120.00
2023-01-28T09:26:16.572Z,214126.00
2023-01-28T09:32:18.914Z,214193.00
2023-01-28T09:38:21.023Z,214287.00
2023-01-28T09:45:04.382Z,214373.00
2023-01-28T09:51:30.073Z,214287.00
2023-01-28T09:57:42.008Z,214307.00
2023-01-28T10:03:56.107Z,214307.00
2023-01-28T10:10:08.980Z,214287.00
2023-01-28T10:16:19.456Z,214301.00
2023-01-28T10:22:34.250Z,214266.00
2023-01-28T10:28:36.604Z,214301.00
2023-01-28T10:34:38.963Z,214321.00
2023-01-28T10:40:41.793Z,214341.00
2023-01-28T10:46:47.077Z,214353.00
2023-01-28T10:53:04.398Z,214333.00
2023-01-28T10:59:27.382Z,214287.00
2023-01-28T11:05:31.622Z,214274.00
2023-01-28T11:11:33.914Z,214213.00
2023-01-28T11:17:39.131Z,214193.00
2023-01-28T11:23:55.985Z,214126.00
2023-01-28T11:30:04.964Z,214148.00
2023-01-28T11:36:16.156Z,214241.00
2023-01-28T11:42:20.833Z,214207.00
2023-01-28T11:48:58.378Z,214173.00
2023-01-28T11:55:34.433Z,214167.00
2023-01-28T12:02:07.459Z,214201.00
2023-01-28T12:08:26.141Z,214142.00
2023-01-28T12:14:55.893Z,214086.00
2023-01-28T12:21:11.017Z,214052.00
2023-01-28T12:27:45.407Z,214060.00
2023-01-28T12:34:15.215Z,214080.00
2023-01-28T12:40:55.325Z,214052.00
2023-01-28T12:47:10.885Z,214052.00
2023-01-28T12:53:31.829Z,214080.00
2023-01-28T12:59:46.465Z,214072.00
2023-01-28T13:06:00.237Z,214052.00
2023-01-28T13:12:04.034Z,214013.00
2023-01-28T13:18:06.998Z,213988.00
2023-01-28T13:24:09.512Z,213954.00
2023-01-28T13:30:31.632Z,213926.00
2023-01-28T13:36:40.345Z,213900.00
2023-01-28T13:42:42.886Z,213887.00
2023-01-28T13:48:52.956Z,213892.00
2023-01-28T13:54:58.017Z,213887.00
2023-01-28T14:01:09.206Z,213900.00
2023-01-28T14:07:46.815Z,213926.00
2023-01-28T14:13:54.861Z,213926.00
2023-01-28T14:19:58.900Z,213906.00
2023-01-28T14:26:15.499Z,213887.00
2023-01-28T14:32:27.426Z,213833.00
2023-01-28T14:38:32.464Z,213793.00
2023-01-28T14:44:38.414Z,213765.00
2023-01-28T14:51:02.871Z,213765.00
2023-01-28T14:57:40.701Z,213721.00
2023-01-28T15:03:46.291Z,213699.00
2023-01-28T15:10:02.629Z,213693.00
2023-01-28T15:16:05.948Z,213679.00
2023-01-28T15:22:08.864Z,213667.00
2023-01-28T15:28:37.550Z,213641.00
2023-01-28T15:34:46.370Z,213600.00
2023-01-28T15:41:00.830Z,213653.00
2023-01-28T15:47:24.686Z,213667.00
2023-01-28T15:53:29.892Z,213667.00
2023-01-28T15:59:32.228Z,213667.00
2023-01-28T16:05:40.415Z,213659.00
2023-01-28T16:11:45.214Z,213679.00
2023-01-28T16:17:50.602Z,213659.00
2023-01-28T16:23:58.833Z,213679.00
2023-01-28T16:30:01.719Z,213679.00
2023-01-28T16:36:08.579Z,213679.00
2023-01-28T16:42:11.551Z,213699.00
2023-01-28T16:48:14.283Z,213699.00
2023-01-28T16:54:17.052Z,213699.00
2023-01-28T17:00:24.942Z,213713.00
2023-01-28T17:06:27.559Z,213721.00
2023-01-28T17:12:30.067Z,213721.00
2023-01-28T17:18:32.722Z,213740.00
2023-01-28T17:24:35.186Z,213713.00
2023-01-28T17:30:41.909Z,213721.00
2023-01-28T17:36:44.344Z,213740.00
2023-01-28T17:42:46.940Z,213721.00
2023-01-28T17:48:49.241Z,213746.00
2023-01-28T17:54:51.697Z,213771.00
2023-01-28T18:00:54.227Z,213779.00
2023-01-28T18:06:56.566Z,213787.00
2023-01-28T18:12:58.838Z,213833.00
2023-01-28T18:19:01.306Z,213853.00
2023-01-28T18:25:03.712Z,213887.00
2023-01-28T18:31:07.328Z,213887.00
2023-01-28T18:37:10.671Z,213887.00
2023-01-28T18:43:14.085Z,213926.00
2023-01-28T18:49:16.972Z,213900.00
2023-01-28T18:55:21.753Z,213934.00
2023-01-28T19:01:24.264Z,213926.00
2023-01-28T19:07:26.512Z,213940.00
2023-01-28T19:13:29.915Z,213968.00
2023-01-28T19:19:32.809Z,213940.00
2023-01-28T19:25:38.701Z,213986.00
2023-01-28T19:31:40.979Z,213954.00
2023-01-28T19:37:43.419Z,213986.00
2023-01-28T19:43:45.554Z,213962.00
2023-01-28T19:49:47.810Z,213968.00
2023-01-28T19:55:52.077Z,213946.00
2023-01-28T20:01:54.378Z,213988.00
2023-01-28T20:07:56.981Z,214018.00
2023-01-28T20:13:59.991Z,214013.00
2023-01-28T20:20:03.669Z,213999.00
2023-01-28T20:26:06.002Z,213926.00
2023-01-28T20:32:17.636Z,213839.00
2023-01-28T20:38:21.759Z,213805.00
2023-01-28T20:44:24.035Z,213771.00
2023-01-28T20:50:26.705Z,213765.00
2023-01-28T20:56:32.659Z,213713.00
2023-01-28T21:02:38.013Z,213586.00
2023-01-28T21:08:40.637Z,213520.00
2023-01-28T21:14:42.822Z,213532.00
2023-01-28T21:20:45.359Z,213520.00
2023-01-28T21:26:47.714Z,213520.00
2023-01-28T21:32:49.804Z,213546.00
2023-01-28T21:38:53.973Z,213520.00
2023-01-28T21:44:56.947Z,213486.00
2023-01-28T21:51:27.602Z,213498.00
2023-01-28T21:57:29.865Z,213498.00
2023-01-28T22:03:32.120Z,213448.00
2023-01-28T22:09:35.151Z,213434.00
2023-01-28T22:15:37.195Z,213420.00
2023-01-28T22:21:43.473Z,213420.00
2023-01-28T22:27:45.610Z,213512.00
2023-01-28T22:33:47.983Z,213486.00
2023-01-28T22:39:50.267Z,213538.00
2023-01-28T22:46:01.534Z,213580.00
2023-01-28T22:52:04.062Z,213546.00
2023-01-28T22:58:07.764Z,213574.00
2023-01-28T23:04:09.938Z,213574.00
2023-01-28T23:10:12.750Z,213600.00
2023-01-28T23:16:33.747Z,213574.00
2023-01-28T23:22:54.883Z,213554.00
2023-01-28T23:28:57.493Z,213518.00
2023-01-28T23:34:59.718Z,213574.00
2023-01-28T23:41:02.687Z,213554.00
2023-01-28T23:47:05.391Z,213620.00
2023-01-28T23:53:13.410Z,213627.00
2023-01-28T23:59:15.765Z,213627.00
